Time;durP1;ratioP1;P1;durP2;ratioP2;P2;SDS_P1;SDS_P2;PMS_P1;PMS_P2;Temp;Humidity;BMP_temperature;BMP_pressure;BME280_temperature;BME280_humidity;BME280_pressure;Samples;Min_cycle;Max_cycle;Signal;HPM_P1;HPM_P2
2023/01/15 05:00:42;;;;;;;3.27;0.80;;;11.80;99.90;;;;;;5941639;23;20764;-73
2023/01/15 05:03:09;;;;;;;0.70;0.70;;;11.80;99.90;;;;;;4986893;28;20795;-73
2023/01/15 05:05:35;;;;;;;0.80;0.77;;;11.80;99.90;;;;;;4986275;28;20463;-74
2023/01/15 05:08:02;;;;;;;0.93;0.70;;;11.70;99.90;;;;;;4986008;28;20459;-74
2023/01/15 05:10:29;;;;;;;2.60;1.27;;;11.60;99.90;;;;;;4986635;28;20878;-74
2023/01/15 05:12:56;;;;;;;0.80;0.80;;;11.60;99.90;;;;;;4987511;28;20456;-73
2023/01/15 05:15:22;;;;;;;0.90;0.73;;;11.50;99.90;;;;;;4987089;28;20458;-73
2023/01/15 05:17:50;;;;;;;1.33;0.80;;;11.50;99.90;;;;;;4986810;28;20451;-75
2023/01/15 05:20:17;;;;;;;0.83;0.80;;;11.40;99.90;;;;;;4985897;28;20450;-73
2023/01/15 05:22:44;;;;;;;1.33;0.80;;;11.40;99.90;;;;;;4987340;28;20470;-74
2023/01/15 05:25:11;;;;;;;0.70;0.70;;;11.10;99.90;;;;;;4986598;28;20450;-73
2023/01/15 05:27:38;;;;;;;0.80;0.80;;;11.00;99.90;;;;;;4986352;28;20471;-73
2023/01/15 05:30:06;;;;;;;0.60;0.60;;;10.80;99.90;;;;;;4985706;28;20448;-73
2023/01/15 05:32:33;;;;;;;0.77;0.77;;;10.60;99.90;;;;;;4986697;28;20474;-73
2023/01/15 05:35:01;;;;;;;0.70;0.70;;;10.40;99.90;;;;;;4987001;28;20447;-73
2023/01/15 05:37:30;;;;;;;0.70;0.70;;;10.20;99.90;;;;;;4986662;28;20460;-76
2023/01/15 05:39:56;;;;;;;1.23;0.87;;;9.90;99.90;;;;;;4987259;28;20464;-74
2023/01/15 05:42:23;;;;;;;0.80;0.80;;;9.80;99.90;;;;;;4986979;28;20475;-74
2023/01/15 05:44:50;;;;;;;0.77;0.77;;;9.70;99.90;;;;;;4986793;28;20465;-73
2023/01/15 05:47:17;;;;;;;2.77;0.90;;;9.60;99.90;;;;;;4986115;28;20462;-73
2023/01/15 05:49:43;;;;;;;0.80;0.80;;;9.50;99.90;;;;;;4987077;28;20451;-73
2023/01/15 05:52:11;;;;;;;0.90;0.80;;;9.40;99.90;;;;;;4985872;28;20498;-73
2023/01/15 05:54:38;;;;;;;0.80;0.80;;;9.40;99.90;;;;;;4986505;28;20486;-73
2023/01/15 05:57:05;;;;;;;0.70;0.70;;;9.40;99.90;;;;;;4985539;28;20459;-74
2023/01/15 05:59:33;;;;;;;0.97;0.80;;;9.30;99.90;;;;;;4986421;28;20466;-75
2023/01/15 06:01:59;;;;;;;0.60;0.60;;;9.20;99.90;;;;;;4986395;28;20484;-74
2023/01/15 06:04:27;;;;;;;0.70;0.70;;;9.20;99.90;;;;;;4986541;28;20466;-73
2023/01/15 06:06:55;;;;;;;0.70;0.70;;;9.10;99.90;;;;;;4985583;28;21009;-75
2023/01/15 06:09:26;;;;;;;0.90;0.80;;;9.10;99.90;;;;;;4986513;28;20465;-74
2023/01/15 06:11:54;;;;;;;0.73;0.73;;;9.10;99.90;;;;;;4986224;28;20535;-74
2023/01/15 06:14:21;;;;;;;1.43;0.97;;;9.10;99.90;;;;;;4986366;28;20494;-73
2023/01/15 06:16:47;;;;;;;1.00;0.70;;;9.10;99.90;;;;;;4988977;28;20455;-73
2023/01/15 06:19:15;;;;;;;0.80;0.80;;;9.00;99.90;;;;;;4989855;28;20454;-74
2023/01/15 06:21:42;;;;;;;0.60;0.60;;;9.00;99.90;;;;;;4990215;28;20474;-76
2023/01/15 06:24:09;;;;;;;0.80;0.80;;;9.00;99.90;;;;;;4990138;28;20451;-73
2023/01/15 06:26:38;;;;;;;0.70;0.70;;;8.90;99.90;;;;;;4989302;28;20448;-73
2023/01/15 06:29:04;;;;;;;1.20;1.10;;;8.90;99.90;;;;;;4990057;28;20455;-74
2023/01/15 06:31:31;;;;;;;1.00;1.00;;;8.90;99.90;;;;;;4989722;28;20500;-73
2023/01/15 06:33:58;;;;;;;2.00;1.30;;;8.80;99.90;;;;;;5007345;28;20454;-74
2023/01/15 06:36:26;;;;;;;2.20;1.00;;;8.80;99.90;;;;;;5008714;28;20450;-74
2023/01/15 06:38:53;;;;;;;0.90;0.90;;;8.70;99.90;;;;;;5009441;28;20450;-73
2023/01/15 06:49:39;;;;;;;0.90;0.90;;;8.50;99.90;;;;;;5009080;28;20426;-74
2023/01/15 06:52:07;;;;;;;1.73;0.93;;;8.40;99.90;;;;;;5008895;28;20504;-76
2023/01/15 06:54:34;;;;;;;1.20;1.10;;;8.40;99.90;;;;;;5009138;28;20930;-74
2023/01/15 06:57:01;;;;;;;1.53;1.43;;;8.30;99.90;;;;;;5009082;28;20463;-73
2023/01/15 06:59:29;;;;;;;3.47;2.00;;;8.20;99.90;;;;;;5008993;28;20449;-71
2023/01/15 07:01:56;;;;;;;2.10;1.43;;;8.10;99.90;;;;;;5007925;28;20493;-66
2023/01/15 07:04:22;;;;;;;1.40;1.30;;;8.10;99.90;;;;;;5008317;28;20459;-65
2023/01/15 07:06:49;;;;;;;1.23;1.10;;;8.00;99.90;;;;;;5007638;28;20458;-65
2023/01/15 07:09:16;;;;;;;0.93;0.93;;;7.90;99.90;;;;;;5007917;28;20446;-69
2023/01/15 07:11:49;;;;;;;0.90;0.90;;;7.80;99.90;;;;;;5007650;28;20505;-69
2023/01/15 07:14:16;;;;;;;1.10;1.10;;;7.80;99.90;;;;;;5007827;28;20855;-69
2023/01/15 07:16:44;;;;;;;0.87;0.87;;;7.70;99.90;;;;;;4998398;28;20454;-69
2023/01/15 07:19:12;;;;;;;0.80;0.80;;;7.70;99.90;;;;;;4989883;28;20452;-69
2023/01/15 07:21:38;;;;;;;0.80;0.80;;;7.50;99.90;;;;;;4988492;28;20586;-68
2023/01/15 07:24:06;;;;;;;0.90;0.90;;;7.40;99.90;;;;;;4988130;28;20455;-69
2023/01/15 07:26:33;;;;;;;0.97;0.97;;;7.30;99.90;;;;;;4987087;28;20466;-82
2023/01/15 07:28:59;;;;;;;0.70;0.70;;;7.20;99.90;;;;;;4989497;28;20467;-69
2023/01/15 07:31:26;;;;;;;2.10;1.00;;;7.20;99.90;;;;;;4998797;28;20507;-68
2023/01/15 07:33:55;;;;;;;1.27;1.00;;;7.20;99.90;;;;;;4988528;28;20451;-68
2023/01/15 07:36:22;;;;;;;1.00;1.00;;;7.10;99.90;;;;;;4987084;28;20462;-68
2023/01/15 07:38:49;;;;;;;1.33;1.00;;;7.10;99.90;;;;;;4987764;28;20834;-68
2023/01/15 07:49:48;;;;;;;4.23;1.20;;;7.00;99.90;;;;;;4987420;28;20523;-69
2023/01/15 07:52:17;;;;;;;2.80;1.80;;;7.00;99.90;;;;;;4985621;28;20499;-68
2023/01/15 07:54:44;;;;;;;3.67;2.30;;;7.00;99.90;;;;;;4986679;28;20990;-68
2023/01/15 07:57:12;;;;;;;2.90;2.00;;;7.00;99.90;;;;;;4986926;28;20455;-68
2023/01/15 07:59:38;;;;;;;1.30;1.20;;;6.90;99.90;;;;;;4987685;28;20455;-68
2023/01/15 08:02:06;;;;;;;2.67;1.30;;;7.00;99.90;;;;;;4986241;28;20483;-68
2023/01/15 08:04:35;;;;;;;1.90;1.80;;;6.90;99.90;;;;;;4987044;28;20562;-68
2023/01/15 08:07:03;;;;;;;1.80;1.50;;;6.90;99.90;;;;;;4986727;28;20459;-68
2023/01/15 08:09:30;;;;;;;1.10;1.10;;;6.90;99.90;;;;;;4987135;28;20447;-68
2023/01/15 08:17:27;;;;;;;1.47;1.37;;;6.80;99.90;;;;;;4986506;28;20474;-69
2023/01/15 08:19:56;;;;;;;1.30;1.30;;;6.80;99.90;;;;;;4986978;28;20463;-68
2023/01/15 08:22:22;;;;;;;1.60;1.50;;;6.80;99.90;;;;;;4985523;28;21293;-68
2023/01/15 08:24:52;;;;;;;1.83;1.50;;;6.70;99.90;;;;;;4985882;28;20455;-68
2023/01/15 08:27:18;;;;;;;1.40;1.30;;;6.70;99.90;;;;;;4985123;28;20510;-68
2023/01/15 08:29:45;;;;;;;1.27;1.07;;;6.70;99.90;;;;;;4985680;28;20830;-67
2023/01/15 08:32:12;;;;;;;1.20;1.10;;;6.70;99.90;;;;;;4985876;28;20499;-68
2023/01/15 08:34:39;;;;;;;1.20;1.20;;;6.60;99.90;;;;;;4985263;28;20993;-69
2023/01/15 08:37:07;;;;;;;1.20;1.10;;;6.50;99.90;;;;;;4985193;28;20961;-69
2023/01/15 08:39:34;;;;;;;1.43;1.20;;;6.50;99.90;;;;;;4985964;28;20470;-69
2023/01/15 08:42:01;;;;;;;1.53;1.43;;;6.60;99.90;;;;;;4985711;28;20476;-69
2023/01/15 08:44:27;;;;;;;1.40;1.30;;;6.60;99.90;;;;;;4985623;28;20483;-68
2023/01/15 08:46:54;;;;;;;1.77;1.40;;;6.50;99.90;;;;;;4985128;28;20454;-67
2023/01/15 08:49:21;;;;;;;1.40;1.30;;;6.50;99.90;;;;;;4985273;28;20451;-66
2023/01/15 08:51:50;;;;;;;1.30;1.20;;;6.40;99.90;;;;;;4985410;28;20507;-66
2023/01/15 08:54:20;;;;;;;1.27;1.17;;;6.40;99.90;;;;;;4983406;28;21174;-68
2023/01/15 08:56:48;;;;;;;1.77;1.67;;;6.40;99.90;;;;;;4984916;28;20440;-69
2023/01/15 08:59:15;;;;;;;1.80;1.70;;;6.40;99.90;;;;;;4985476;28;20506;-67
2023/01/15 09:01:43;;;;;;;1.50;1.40;;;6.40;99.90;;;;;;4984713;28;20479;-67
2023/01/15 09:04:13;;;;;;;1.50;1.40;;;6.40;99.90;;;;;;4984798;28;20485;-67
2023/01/15 09:06:39;;;;;;;1.60;1.50;;;6.40;99.90;;;;;;4985081;28;20455;-67
2023/01/15 09:09:06;;;;;;;1.17;1.10;;;6.30;99.90;;;;;;4985450;28;21011;-67
2023/01/15 09:11:35;;;;;;;1.17;1.07;;;6.30;99.90;;;;;;4985678;28;20506;-67
2023/01/15 09:14:01;;;;;;;1.07;1.00;;;6.20;99.90;;;;;;4985805;28;20965;-67
2023/01/15 09:16:30;;;;;;;0.90;0.90;;;6.20;99.90;;;;;;4984932;28;20984;-67
2023/01/15 09:18:57;;;;;;;1.10;0.97;;;6.20;99.90;;;;;;4986210;28;20452;-67
2023/01/15 09:21:24;;;;;;;1.20;1.10;;;6.20;99.90;;;;;;4986206;28;20477;-67
2023/01/15 09:23:51;;;;;;;1.30;0.93;;;6.20;99.90;;;;;;4986476;28;20458;-67
2023/01/15 09:26:26;;;;;;;1.10;1.10;;;6.30;99.90;;;;;;4985691;28;20462;-67
2023/01/15 09:28:55;;;;;;;1.53;1.03;;;6.20;99.90;;;;;;4985794;28;20462;-67
2023/01/15 09:31:22;;;;;;;2.50;1.20;;;6.10;99.90;;;;;;4986128;28;20479;-67
2023/01/15 09:33:49;;;;;;;1.13;1.10;;;6.20;99.90;;;;;;4986088;28;20861;-67
2023/01/15 09:36:17;;;;;;;1.43;1.13;;;6.20;99.90;;;;;;4985551;28;20452;-67
2023/01/15 09:38:43;;;;;;;1.10;1.00;;;6.10;99.90;;;;;;4985834;28;20587;-69
2023/01/15 09:42:04;;;;;;;1.37;1.07;;;6.10;99.90;;;;;;4986131;28;20475;-69
2023/01/15 09:44:12;;;;;;;0.93;0.90;;;6.00;99.90;;;;;;4985695;28;20928;-69
2023/01/15 09:46:47;;;;;;;1.27;1.17;;;6.00;99.90;;;;;;4984876;28;20516;-69
2023/01/15 09:49:25;;;;;;;0.90;0.90;;;5.90;99.90;;;;;;4986051;28;20538;-69
2023/01/15 09:52:00;;;;;;;1.83;1.00;;;5.90;99.90;;;;;;4989092;28;20521;-69
2023/01/15 09:54:44;;;;;;;1.23;1.13;;;5.90;99.90;;;;;;4989737;28;20948;-67
2023/01/15 09:57:12;;;;;;;1.50;1.40;;;5.90;99.90;;;;;;4989469;28;20474;-67
2023/01/15 09:59:43;;;;;;;1.10;1.00;;;5.90;99.90;;;;;;4990058;28;20451;-67
2023/01/15 10:02:21;;;;;;;1.00;1.00;;;5.90;99.90;;;;;;4989449;28;20475;-67
2023/01/15 10:04:51;;;;;;;1.00;0.97;;;5.80;99.90;;;;;;4989912;28;20462;-67
2023/01/15 10:07:23;;;;;;;1.10;1.10;;;5.90;99.90;;;;;;4989231;28;20848;-67
2023/01/15 10:09:57;;;;;;;1.30;1.20;;;5.80;99.90;;;;;;4989904;28;20436;-67
2023/01/15 10:12:36;;;;;;;0.90;0.90;;;5.80;99.90;;;;;;4989473;28;20494;-67
2023/01/15 10:15:22;;;;;;;1.10;1.10;;;5.80;99.90;;;;;;4989529;28;20922;-67
2023/01/15 10:17:52;;;;;;;1.07;1.00;;;5.80;99.90;;;;;;4988427;28;20447;-67
2023/01/15 10:20:37;;;;;;;1.10;1.10;;;5.70;99.90;;;;;;4989510;28;20467;-67
2023/01/15 10:23:16;;;;;;;2.33;1.50;;;5.70;99.90;;;;;;4989099;28;20459;-67
2023/01/15 10:25:48;;;;;;;1.27;1.03;;;5.70;99.90;;;;;;4989347;28;20451;-67
2023/01/15 10:28:22;;;;;;;1.43;1.20;;;5.60;99.90;;;;;;4988744;28;20498;-67
2023/01/15 10:30:53;;;;;;;1.20;1.07;;;5.60;99.90;;;;;;4989355;28;20475;-67
2023/01/15 10:33:37;;;;;;;1.50;1.20;;;5.50;99.90;;;;;;4989082;28;20512;-67
2023/01/15 10:36:10;;;;;;;1.00;1.00;;;5.60;99.90;;;;;;4988181;28;20522;-67
2023/01/15 10:38:44;;;;;;;1.07;1.07;;;5.50;99.90;;;;;;4989439;28;20435;-67
2023/01/15 10:41:36;;;;;;;1.63;1.13;;;5.50;99.90;;;;;;4988848;28;20502;-67
2023/01/15 10:44:09;;;;;;;1.53;1.43;;;5.60;99.90;;;;;;4988883;28;21027;-67
2023/01/15 10:46:40;;;;;;;1.30;1.20;;;5.60;99.90;;;;;;4988435;28;20818;-67
2023/01/15 10:49:13;;;;;;;1.10;1.10;;;5.60;99.90;;;;;;4988699;28;20530;-67
2023/01/15 10:51:43;;;;;;;1.60;1.50;;;5.60;99.90;;;;;;4988507;28;20474;-67
2023/01/15 10:54:18;;;;;;;2.90;1.50;;;5.60;99.90;;;;;;4987282;28;20495;-67
2023/01/15 10:56:52;;;;;;;1.80;1.70;;;5.50;99.90;;;;;;4988259;28;20795;-67
2023/01/15 10:59:22;;;;;;;2.40;1.10;;;5.50;99.90;;;;;;4988593;28;20444;-67
2023/01/15 11:01:53;;;;;;;1.43;1.30;;;5.60;99.90;;;;;;4987057;28;20491;-67
2023/01/15 11:04:21;;;;;;;7.73;1.43;;;5.50;99.90;;;;;;4988558;28;20447;-67
2023/01/15 11:06:47;;;;;;;1.03;1.03;;;5.50;99.90;;;;;;4987516;28;20452;-67
2023/01/15 11:09:21;;;;;;;1.30;1.20;;;5.40;99.90;;;;;;4988422;28;20455;-67
2023/01/15 11:20:27;;;;;;;1.37;1.27;;;5.20;99.90;;;;;;4988229;28;20442;-67
2023/01/15 11:22:55;;;;;;;0.97;0.97;;;5.10;99.90;;;;;;4988198;28;20444;-67
2023/01/15 11:25:28;;;;;;;0.97;0.83;;;5.00;99.90;;;;;;4988441;28;20455;-67
2023/01/15 11:27:55;;;;;;;0.80;0.80;;;5.00;99.90;;;;;;4987535;28;20456;-67
2023/01/15 11:30:31;;;;;;;1.03;1.03;;;4.90;99.90;;;;;;4988050;28;20462;-67
2023/01/15 11:33:02;;;;;;;4.10;1.10;;;4.80;99.90;;;;;;4988464;28;20510;-67
2023/01/15 11:35:30;;;;;;;2.10;1.20;;;4.80;99.90;;;;;;4988270;28;20448;-67
2023/01/15 11:38:05;;;;;;;1.00;1.00;;;4.70;99.90;;;;;;4986854;28;20948;-67
2023/01/15 11:40:32;;;;;;;2.00;1.20;;;4.80;99.90;;;;;;4988008;28;20457;-67
2023/01/15 11:51:28;;;;;;;1.20;1.10;;;4.80;99.90;;;;;;4987657;28;20501;-67
2023/01/15 11:54:00;;;;;;;1.10;1.00;;;4.70;99.90;;;;;;4987894;28;20491;-67
2023/01/15 11:56:30;;;;;;;1.47;1.20;;;4.70;99.90;;;;;;4986832;28;20819;-67
2023/01/15 11:59:01;;;;;;;0.93;0.93;;;4.60;99.90;;;;;;4987716;28;20874;-69
2023/01/15 12:01:31;;;;;;;1.07;0.97;;;4.50;99.90;;;;;;4987091;28;20532;-69
2023/01/15 12:04:01;;;;;;;1.80;1.10;;;4.50;99.90;;;;;;4987087;28;20547;-69
2023/01/15 12:06:29;;;;;;;1.10;1.10;;;4.50;99.90;;;;;;4986689;28;20808;-69
2023/01/15 12:09:03;;;;;;;1.30;1.20;;;4.50;99.90;;;;;;4987298;28;20467;-69
2023/01/15 12:11:46;;;;;;;3.30;1.80;;;4.40;99.90;;;;;;4987401;28;20484;-69
2023/01/15 12:15:00;;;;;;;3.70;1.57;;;4.40;99.90;;;;;;4986873;28;20502;-69
2023/01/15 12:17:39;;;;;;;1.60;1.40;;;4.30;99.90;;;;;;4986356;28;20534;-69
2023/01/15 12:20:20;;;;;;;1.57;1.47;;;4.40;99.90;;;;;;4987529;28;20431;-69
2023/01/15 12:23:02;;;;;;;1.83;1.17;;;4.40;99.90;;;;;;4987263;28;20481;-69
2023/01/15 12:25:40;;;;;;;1.10;1.03;;;4.40;99.90;;;;;;4986937;28;20451;-69
2023/01/15 12:28:14;;;;;;;1.10;1.10;;;4.30;99.90;;;;;;4986350;28;20462;-69
2023/01/15 12:30:51;;;;;;;1.37;1.20;;;4.30;99.90;;;;;;4987309;28;20483;-69
2023/01/15 12:33:32;;;;;;;2.67;1.60;;;4.40;99.90;;;;;;4986619;28;20934;-69
2023/01/15 12:36:06;;;;;;;3.03;1.80;;;4.40;99.90;;;;;;4986630;28;20447;-69
2023/01/15 12:38:46;;;;;;;4.63;1.77;;;4.40;99.90;;;;;;4986705;28;20445;-69
2023/01/15 12:41:15;;;;;;;2.10;1.80;;;4.40;99.90;;;;;;4986846;28;20495;-69
2023/01/15 12:46:32;;;;;;;2.40;1.40;;;4.40;99.90;;;;;;4985957;28;20412;-69
2023/01/15 12:49:06;;;;;;;1.50;1.40;;;4.50;99.90;;;;;;4986115;28;21192;-69
2023/01/15 12:51:40;;;;;;;2.40;1.43;;;4.50;99.90;;;;;;4986831;28;20534;-69
2023/01/15 12:54:12;;;;;;;1.80;1.43;;;4.50;99.90;;;;;;4986529;28;20495;-69
2023/01/15 12:56:49;;;;;;;1.40;1.30;;;4.60;99.90;;;;;;4986011;28;20442;-69
2023/01/15 12:59:22;;;;;;;2.13;1.53;;;4.60;99.90;;;;;;4986530;28;20467;-69
2023/01/15 13:01:55;;;;;;;2.07;1.77;;;4.60;99.90;;;;;;4986292;28;20487;-69
2023/01/15 13:04:27;;;;;;;2.30;1.43;;;4.60;99.90;;;;;;4986407;28;20457;-69
2023/01/15 13:07:02;;;;;;;4.40;1.60;;;4.60;99.90;;;;;;4985638;28;20456;-69
2023/01/15 13:09:38;;;;;;;2.37;2.17;;;4.70;99.90;;;;;;4986349;28;20462;-69
2023/01/15 13:12:11;;;;;;;1.90;1.80;;;4.60;99.90;;;;;;4986550;28;20819;-69
2023/01/15 13:14:38;;;;;;;2.07;1.70;;;4.70;99.90;;;;;;4986129;28;21007;-69
2023/01/15 13:17:15;;;;;;;3.53;1.60;;;4.70;99.90;;;;;;4985566;28;20459;-69
2023/01/15 13:19:52;;;;;;;2.53;1.73;;;4.70;99.90;;;;;;4986468;28;20427;-69
2023/01/15 13:22:25;;;;;;;3.77;1.70;;;4.70;99.90;;;;;;4985918;28;20475;-69
2023/01/15 13:25:40;;;;;;;5.67;1.70;;;4.70;99.90;;;;;;4985475;28;20689;-70
2023/01/15 13:28:22;;;;;;;2.47;2.23;;;4.70;99.90;;;;;;4924782;29;20468;-69
2023/01/15 13:30:59;;;;;;;2.20;1.83;;;4.80;99.90;;;;;;4977538;28;20490;-67
2023/01/15 13:33:31;;;;;;;3.70;2.83;;;4.80;99.90;;;;;;4985500;28;21037;-67
2023/01/15 13:36:08;;;;;;;4.67;2.07;;;4.80;99.90;;;;;;4985420;28;20459;-67
2023/01/15 13:38:41;;;;;;;4.30;3.33;;;4.90;99.90;;;;;;4985787;28;20822;-67
2023/01/15 13:41:09;;;;;;;3.60;2.40;;;5.00;99.90;;;;;;4986004;28;20476;-67
2023/01/15 13:43:39;;;;;;;5.30;3.33;;;4.90;99.90;;;;;;4986324;28;20447;-67
2023/01/15 13:46:09;;;;;;;1.97;1.80;;;4.90;99.90;;;;;;4985274;28;20522;-67
2023/01/15 13:48:42;;;;;;;2.03;1.90;;;5.00;99.90;;;;;;4985916;28;20462;-67
2023/01/15 13:51:27;;;;;;;1.80;1.70;;;5.00;99.90;;;;;;4985690;28;20837;-67
2023/01/15 13:53:57;;;;;;;2.67;1.90;;;5.00;99.90;;;;;;4986154;28;20498;-67
2023/01/15 13:56:28;;;;;;;9.70;1.97;;;5.00;99.90;;;;;;4985466;28;20436;-67
2023/01/15 13:58:57;;;;;;;1.33;1.20;;;5.00;99.90;;;;;;4986122;28;20466;-67
2023/01/15 14:01:32;;;;;;;2.70;1.63;;;5.10;99.90;;;;;;4985768;28;20853;-67
2023/01/15 14:04:05;;;;;;;1.60;1.33;;;5.10;99.90;;;;;;4985457;28;20482;-67
2023/01/15 14:06:43;;;;;;;1.40;1.30;;;5.20;99.90;;;;;;4985434;28;20468;-67
2023/01/15 14:09:28;;;;;;;2.57;1.40;;;5.30;99.90;;;;;;4985945;28;20455;-67
2023/01/15 14:12:09;;;;;;;4.73;1.27;;;5.40;99.90;;;;;;4984571;28;20479;-67
2023/01/15 14:15:12;;;;;;;4.43;2.10;;;5.50;99.90;;;;;;4984966;28;20506;-67
2023/01/15 14:18:08;;;;;;;3.00;1.77;;;5.60;99.90;;;;;;4952859;28;20470;-67
2023/01/15 14:20:59;;;;;;;5.37;3.00;;;5.60;99.90;;;;;;4984605;28;21133;-67
2023/01/15 14:23:53;;;;;;;3.83;1.60;;;5.60;99.90;;;;;;4984140;28;20447;-67
2023/01/15 14:26:31;;;;;;;2.53;1.70;;;5.60;99.90;;;;;;4983871;28;20448;-67
2023/01/15 14:29:39;;;;;;;4.40;2.07;;;5.60;99.90;;;;;;4984954;28;20443;-66
2023/01/15 14:32:14;;;;;;;2.83;1.90;;;5.60;99.90;;;;;;4969310;28;20863;-68
2023/01/15 14:34:42;;;;;;;1.70;1.60;;;5.60;99.90;;;;;;4984767;28;20483;-66
2023/01/15 14:37:24;;;;;;;4.30;2.30;;;5.60;99.90;;;;;;4985489;28;20492;-67
2023/01/15 14:39:54;;;;;;;3.83;2.40;;;5.60;99.90;;;;;;4988240;28;20450;-69
2023/01/15 14:45:21;;;;;;;4.23;1.97;;;5.60;99.90;;;;;;4987988;28;20501;-68
2023/01/15 14:47:49;;;;;;;1.47;1.37;;;5.60;99.90;;;;;;4987133;28;20443;-67
2023/01/15 14:50:37;;;;;;;11.10;1.73;;;5.60;99.90;;;;;;4987539;28;20455;-67
2023/01/15 14:53:27;;;;;;;2.00;1.10;;;5.60;99.90;;;;;;4987772;28;20490;-67
2023/01/15 14:55:59;;;;;;;1.80;1.30;;;5.60;99.90;;;;;;4987274;28;20447;-66
2023/01/15 14:58:45;;;;;;;1.30;1.20;;;5.70;99.90;;;;;;4987547;28;20446;-67
2023/01/15 15:01:18;;;;;;;1.57;1.47;;;5.70;99.90;;;;;;4987397;28;20487;-67
2023/01/15 15:03:51;;;;;;;1.70;1.60;;;5.80;99.90;;;;;;4987645;28;20459;-67
2023/01/15 15:06:18;;;;;;;15.13;2.37;;;5.80;99.90;;;;;;4986765;28;20455;-67
2023/01/15 15:08:46;;;;;;;4.60;2.10;;;5.80;99.90;;;;;;4985863;28;20455;-67
2023/01/15 15:14:11;;;;;;;2.43;1.83;;;5.80;99.90;;;;;;4987543;28;20495;-66
2023/01/15 15:16:46;;;;;;;1.97;1.60;;;5.80;99.90;;;;;;4987121;28;20463;-66
2023/01/15 15:19:18;;;;;;;3.17;2.00;;;5.80;99.90;;;;;;4986084;28;21410;-67
2023/01/15 15:21:47;;;;;;;4.53;2.50;;;5.80;99.90;;;;;;4987874;28;20491;-67
2023/01/15 15:24:21;;;;;;;3.23;2.10;;;5.80;99.90;;;;;;4988113;28;20472;-66
2023/01/15 15:26:47;;;;;;;3.70;2.43;;;5.80;99.90;;;;;;4987388;28;20456;-67
2023/01/15 15:29:17;;;;;;;5.93;2.13;;;5.90;99.90;;;;;;4987917;28;20452;-67
2023/01/15 15:31:48;;;;;;;4.07;2.07;;;5.90;99.90;;;;;;4988688;28;20503;-66
2023/01/15 15:34:20;;;;;;;4.50;2.00;;;5.90;99.90;;;;;;4988391;28;20472;-66
2023/01/15 15:36:47;;;;;;;2.37;1.80;;;5.90;99.90;;;;;;4987573;28;20444;-66
2023/01/15 15:39:19;;;;;;;2.50;1.60;;;5.90;99.90;;;;;;4987828;28;20939;-66
2023/01/15 15:50:20;;;;;;;1.87;1.73;;;5.90;99.90;;;;;;4987716;28;20455;-66
2023/01/15 15:52:49;;;;;;;4.10;2.20;;;5.80;99.90;;;;;;4987665;28;20442;-66
2023/01/15 15:55:17;;;;;;;4.07;1.80;;;5.80;99.90;;;;;;4987512;28;20499;-66
2023/01/15 15:57:45;;;;;;;6.67;2.40;;;5.80;99.90;;;;;;4986950;28;20466;-67
2023/01/15 16:00:19;;;;;;;1.97;1.63;;;5.80;99.90;;;;;;4987542;28;20463;-66
2023/01/15 16:02:46;;;;;;;2.13;1.70;;;5.80;99.90;;;;;;4987709;28;20494;-66
2023/01/15 16:05:23;;;;;;;2.43;1.50;;;5.80;99.90;;;;;;4987340;28;20463;-66
2023/01/15 16:07:50;;;;;;;4.00;1.73;;;5.70;99.90;;;;;;4986738;28;20459;-66
2023/01/15 16:10:21;;;;;;;1.27;1.20;;;5.70;99.90;;;;;;4987090;28;20451;-66
2023/01/15 16:12:51;;;;;;;3.43;1.70;;;5.60;99.90;;;;;;4987554;28;20433;-66
2023/01/15 16:15:22;;;;;;;2.60;1.50;;;5.60;99.90;;;;;;4987281;28;20853;-66
2023/01/15 16:17:50;;;;;;;1.63;1.40;;;5.50;99.90;;;;;;4986620;28;20447;-66
2023/01/15 16:20:19;;;;;;;3.90;1.50;;;5.50;99.90;;;;;;4987224;28;20471;-66
2023/01/15 16:22:48;;;;;;;4.20;1.73;;;5.50;99.90;;;;;;4987427;28;20451;-66
2023/01/15 16:25:24;;;;;;;1.50;1.40;;;5.50;99.90;;;;;;4987219;28;20463;-70
2023/01/15 16:27:51;;;;;;;2.50;1.67;;;5.50;99.90;;;;;;4986532;28;20461;-70
2023/01/15 16:30:20;;;;;;;3.80;2.07;;;5.40;99.90;;;;;;4987053;28;20535;-70
2023/01/15 16:32:48;;;;;;;1.73;1.47;;;5.40;99.90;;;;;;4986975;28;20865;-70
2023/01/15 16:35:18;;;;;;;4.13;1.60;;;5.30;99.90;;;;;;4987294;28;20496;-71
2023/01/15 16:37:48;;;;;;;2.43;1.60;;;5.30;99.90;;;;;;4986535;28;20448;-70
2023/01/15 16:40:23;;;;;;;2.13;1.57;;;5.30;99.90;;;;;;4986587;28;20460;-70
2023/01/15 16:43:02;;;;;;;2.77;2.43;;;5.20;99.90;;;;;;4987018;28;20448;-70
2023/01/15 16:45:30;;;;;;;2.03;1.70;;;5.20;99.90;;;;;;4987234;28;20447;-70
2023/01/15 16:48:04;;;;;;;4.93;2.83;;;5.20;99.90;;;;;;4986406;28;20456;-70
2023/01/15 16:50:32;;;;;;;2.80;2.47;;;5.20;99.90;;;;;;4986785;28;20439;-70
2023/01/15 16:53:00;;;;;;;2.87;2.20;;;5.20;99.90;;;;;;4986843;28;20464;-71
2023/01/15 16:55:42;;;;;;;2.63;1.50;;;5.20;99.90;;;;;;4986825;28;20503;-71
2023/01/15 16:58:17;;;;;;;1.90;1.60;;;5.20;99.90;;;;;;4985957;28;20455;-70
2023/01/15 17:00:48;;;;;;;3.20;1.50;;;5.20;99.90;;;;;;4986447;28;20494;-71
2023/01/15 17:03:17;;;;;;;1.87;1.50;;;5.10;99.90;;;;;;4986791;28;20858;-70
2023/01/15 17:05:45;;;;;;;2.87;1.67;;;5.10;99.90;;;;;;4986846;28;20827;-71
2023/01/15 17:08:17;;;;;;;2.23;2.03;;;5.00;99.90;;;;;;4986144;28;20465;-70
2023/01/15 17:10:53;;;;;;;5.87;1.93;;;5.00;99.90;;;;;;4984509;28;20885;-70
2023/01/15 17:13:21;;;;;;;3.60;1.93;;;5.00;99.90;;;;;;5004403;28;20450;-71
2023/01/15 17:16:01;;;;;;;3.37;1.73;;;4.90;99.90;;;;;;5005512;28;20491;-70
2023/01/15 17:18:29;;;;;;;3.60;1.60;;;4.90;99.90;;;;;;5005433;28;20811;-70
2023/01/15 17:20:57;;;;;;;2.50;1.80;;;4.80;99.90;;;;;;5005622;28;20470;-70
2023/01/15 17:23:28;;;;;;;2.50;1.70;;;4.80;99.90;;;;;;5005837;28;20458;-71
2023/01/15 17:25:56;;;;;;;2.73;1.53;;;4.80;99.90;;;;;;5004852;28;20454;-70
2023/01/15 17:28:24;;;;;;;3.00;1.70;;;4.90;99.90;;;;;;5005669;28;20970;-71
2023/01/15 17:30:58;;;;;;;2.60;1.70;;;4.80;99.90;;;;;;5006119;28;20561;-70
2023/01/15 17:33:25;;;;;;;5.80;2.20;;;4.80;99.90;;;;;;5005658;28;20458;-71
2023/01/15 17:35:52;;;;;;;3.20;1.53;;;4.80;99.90;;;;;;5005426;28;20872;-71
2023/01/15 17:38:20;;;;;;;2.60;1.97;;;4.80;99.90;;;;;;5006046;28;20564;-70
2023/01/15 17:40:46;;;;;;;4.40;2.37;;;4.80;99.90;;;;;;5005198;28;20474;-71
2023/01/15 17:43:14;;;;;;;2.10;1.90;;;4.70;99.90;;;;;;5005718;28;20457;-71
2023/01/15 17:45:42;;;;;;;5.27;2.20;;;4.70;99.90;;;;;;5005734;28;20454;-70
2023/01/15 17:48:12;;;;;;;2.30;2.10;;;4.70;99.90;;;;;;5005080;28;20526;-71
2023/01/15 17:50:39;;;;;;;4.80;2.10;;;4.70;99.90;;;;;;5005628;28;20915;-71
2023/01/15 17:53:07;;;;;;;3.43;1.80;;;4.70;99.90;;;;;;5005590;28;20458;-71
2023/01/15 18:06:44;;;;;;;4.30;1.67;;;4.60;99.90;;;;;;5005018;28;20426;-70
2023/01/15 18:09:12;;;;;;;2.03;1.87;;;4.60;99.90;;;;;;5005857;28;20443;-70
2023/01/15 18:11:39;;;;;;;2.50;1.87;;;4.60;99.90;;;;;;5006913;28;20466;-70
2023/01/15 18:14:06;;;;;;;2.70;1.70;;;4.60;99.90;;;;;;5008898;28;20462;-70
2023/01/15 18:16:32;;;;;;;1.83;1.73;;;4.60;99.90;;;;;;5008478;28;20458;-70
2023/01/15 18:19:01;;;;;;;4.00;1.50;;;4.60;99.90;;;;;;5009117;28;20458;-71
2023/01/15 18:21:27;;;;;;;1.53;1.40;;;4.60;99.90;;;;;;5009302;28;20489;-71
2023/01/15 18:23:54;;;;;;;3.63;1.60;;;4.60;99.90;;;;;;5008972;28;20463;-73
2023/01/15 18:26:21;;;;;;;4.13;1.77;;;4.60;99.90;;;;;;5007921;28;20451;-73
2023/01/15 18:28:49;;;;;;;6.53;1.87;;;4.60;99.90;;;;;;5009022;28;20461;-73
2023/01/15 18:31:16;;;;;;;2.17;1.60;;;4.60;99.90;;;;;;5008797;28;20482;-72
2023/01/15 18:33:43;;;;;;;3.67;2.17;;;4.60;99.90;;;;;;5008636;28;20454;-73
2023/01/15 18:36:13;;;;;;;1.87;1.60;;;4.60;99.90;;;;;;5008222;28;20509;-72
2023/01/15 18:38:43;;;;;;;1.50;1.40;;;4.60;99.90;;;;;;5008704;28;20985;-72
2023/01/15 18:46:41;;;;;;;1.70;1.60;;;4.60;99.90;;;;;;5008797;28;20478;-73
2023/01/15 18:46:43;;;;;;;4.80;1.80;;;4.50;99.90;;;;;;5007903;28;20457;-73
2023/01/15 18:49:10;;;;;;;2.43;1.60;;;4.50;99.90;;;;;;5008177;28;20474;-72
2023/01/15 18:51:38;;;;;;;3.33;2.07;;;4.50;99.90;;;;;;5008081;28;20474;-71
2023/01/15 18:54:05;;;;;;;3.70;1.80;;;4.50;99.90;;;;;;5008591;28;20467;-71
2023/01/15 18:56:46;;;;;;;2.50;1.70;;;4.40;99.90;;;;;;4997021;28;20869;-72
2023/01/15 18:59:15;;;;;;;3.20;1.90;;;4.40;99.90;;;;;;4988231;28;20479;-71
2023/01/15 19:01:42;;;;;;;4.45;1.95;;;4.40;99.90;;;;;;4987824;28;20447;-71
2023/01/15 19:04:10;;;;;;;2.80;2.13;;;4.60;99.90;;;;;;4987862;28;20213;-71
2023/01/15 19:06:39;;;;;;;2.97;1.90;;;4.50;99.90;;;;;;4987868;28;20452;-71
2023/01/15 19:09:07;;;;;;;4.80;1.87;;;4.40;99.90;;;;;;4988457;28;20466;-71
2023/01/15 19:11:34;;;;;;;2.23;1.80;;;4.40;99.90;;;;;;4988267;28;20480;-72
2023/01/15 19:19:30;;;;;;;3.60;2.17;;;4.30;99.90;;;;;;4988515;28;21010;-72
2023/01/15 19:24:46;;;;;;;7.77;3.73;;;4.30;99.90;;;;;;4988091;28;20567;-72
2023/01/15 19:27:14;;;;;;;5.93;2.60;;;4.30;99.90;;;;;;4987954;28;20465;-71
2023/01/15 19:29:42;;;;;;;11.33;5.20;;;4.30;99.90;;;;;;4988749;28;20468;-72
2023/01/15 19:32:08;;;;;;;4.40;3.00;;;4.30;99.90;;;;;;4988252;28;20464;-72
2023/01/15 19:34:35;;;;;;;9.20;5.17;;;4.20;99.90;;;;;;4988522;28;20463;-72